Time;durP1;ratioP1;P1;durP2;ratioP2;P2;SDS_P1;SDS_P2;PMS_P1;PMS_P2;Temp;Humidity;BMP_temperature;BMP_pressure;BME280_temperature;BME280_humidity;BME280_pressure;Samples;Min_cycle;Max_cycle;Signal;HPM_P1;HPM_P2
2022/08/10 00:00:19;;;;;;;6.45;1.00;;;;;;;;;;4876007;29;20053;-73
2022/08/10 00:02:16;;;;;;;5.38;0.80;;;;;;;;;;4875844;29;20053;-73
2022/08/10 00:04:46;;;;;;;5.20;1.27;;;;;;;;;;4875517;29;20052;-74
2022/08/10 00:07:15;;;;;;;3.28;0.85;;;;;;;;;;4874825;29;20603;-74
2022/08/10 00:09:45;;;;;;;;;;;;;;;;;;4876168;29;20057;-74
2022/08/10 00:12:19;;;;;;;1.85;0.80;;;;;;;;;;4875913;29;19924;-73
2022/08/10 00:15:11;;;;;;;2.58;0.70;;;;;;;;;;4874520;29;20543;-73
2022/08/10 00:18:02;;;;;;;2.33;0.80;;;;;;;;;;4875646;29;20056;-75
2022/08/10 00:20:32;;;;;;;3.85;0.85;;;;;;;;;;4874020;29;20052;-74
2022/08/10 00:23:01;;;;;;;;;;;;;;;;;;4876137;29;20531;-74
2022/08/10 00:25:31;;;;;;;5.45;0.80;;;;;;;;;;4874865;29;19928;-73
2022/08/10 00:28:01;;;;;;;4.03;0.60;;;;;;;;;;4875098;29;20049;-73
2022/08/10 00:30:32;;;;;;;2.88;0.50;;;;;;;;;;4876251;29;20044;-73
2022/08/10 00:33:01;;;;;;;3.25;0.52;;;;;;;;;;4875115;29;20063;-75
2022/08/10 00:35:31;;;;;;;;;;;;;;;;;;4875548;29;20048;-73
2022/08/10 00:38:01;;;;;;;1.95;0.73;;;;;;;;;;4874944;29;19932;-74
2022/08/10 00:40:31;;;;;;;4.43;0.55;;;;;;;;;;4874875;29;20049;-73
2022/08/10 00:43:06;;;;;;;7.53;0.73;;;;;;;;;;4875133;29;20061;-73
2022/08/10 00:45:38;;;;;;;1.60;0.50;;;;;;;;;;4874713;29;20061;-73
2022/08/10 00:48:08;;;;;;;2.90;0.57;;;;;;;;;;4875169;29;20057;-76
2022/08/10 00:50:38;;;;;;;3.45;0.70;;;;;;;;;;4874467;29;20061;-73
2022/08/10 00:53:08;;;;;;;4.18;0.73;;;;;;;;;;4874217;29;20045;-73
2022/08/10 00:55:38;;;;;;;2.10;0.80;;;;;;;;;;4873999;29;20061;-71
2022/08/10 00:58:28;;;;;;;2.22;0.40;;;;;;;;;;4874814;29;20634;-73
2022/08/10 01:00:59;;;;;;;2.13;0.73;;;;;;;;;;4874709;29;20057;-73
2022/08/10 01:03:29;;;;;;;2.55;0.50;;;;;;;;;;4873579;29;20051;-73
2022/08/10 01:06:52;;;;;;;2.22;0.75;;;;;;;;;;4875283;29;20358;-73
2022/08/10 01:09:30;;;;;;;2.35;0.63;;;;;;;;;;4856581;29;20615;-73
2022/08/10 01:12:21;;;;;;;4.95;0.60;;;;;;;;;;4874393;29;20053;-73
2022/08/10 01:15:24;;;;;;;2.47;0.60;;;;;;;;;;4874300;29;20044;-73
2022/08/10 01:18:10;;;;;;;2.90;0.50;;;;;;;;;;4873427;29;20061;-74
2022/08/10 01:21:16;;;;;;;3.55;0.60;;;;;;;;;;4874478;29;20049;-74
2022/08/10 01:23:58;;;;;;;2.70;0.55;;;;;;;;;;4874324;29;20037;-74
2022/08/10 01:27:09;;;;;;;1.42;0.50;;;;;;;;;;4871866;29;20425;-74
2022/08/10 01:30:06;;;;;;;2.08;0.32;;;;;;;;;;4866447;29;20057;-74
2022/08/10 01:32:36;;;;;;;1.98;0.70;;;;;;;;;;4873693;29;20547;-74
2022/08/10 01:35:34;;;;;;;1.60;0.70;;;;;;;;;;4874116;29;20061;-74
2022/08/10 01:38:17;;;;;;;1.13;0.60;;;;;;;;;;4874241;29;20049;-74
2022/08/10 01:41:10;;;;;;;4.07;0.77;;;;;;;;;;4873457;29;20049;-74
2022/08/10 01:43:47;;;;;;;2.90;1.00;;;;;;;;;;4873700;29;20052;-74
2022/08/10 01:46:21;;;;;;;6.45;1.20;;;;;;;;;;4873477;29;20049;-74
2022/08/10 01:48:54;;;;;;;4.28;1.20;;;;;;;;;;4873479;29;20056;-74
2022/08/10 01:51:56;;;;;;;3.78;1.10;;;;;;;;;;4873758;29;20049;-74
2022/08/10 01:54:29;;;;;;;7.43;1.50;;;;;;;;;;4862708;29;20551;-74
2022/08/10 01:57:02;;;;;;;5.53;1.25;;;;;;;;;;4873267;29;20056;-74
2022/08/10 01:59:38;;;;;;;5.70;1.58;;;;;;;;;;4873687;29;20053;-73
2022/08/10 02:02:09;;;;;;;;;;;;;;;;;;4874216;29;20060;-74
2022/08/10 02:04:42;;;;;;;8.07;1.08;;;;;;;;;;4873320;29;19927;-74
2022/08/10 02:07:16;;;;;;;2.42;1.17;;;;;;;;;;4872853;29;20057;-74
2022/08/10 02:09:50;;;;;;;7.85;1.50;;;;;;;;;;4873324;29;20049;-74
2022/08/10 02:12:23;;;;;;;4.43;1.40;;;;;;;;;;4873726;29;20056;-74
2022/08/10 02:15:00;;;;;;;7.15;1.40;;;;;;;;;;4873810;29;20045;-74
2022/08/10 02:17:35;;;;;;;3.38;1.13;;;;;;;;;;4872975;29;20053;-74
2022/08/10 02:20:29;;;;;;;4.65;1.30;;;;;;;;;;4873285;29;20497;-74
2022/08/10 02:23:17;;;;;;;3.20;1.20;;;;;;;;;;4873069;29;20049;-75
2022/08/10 02:25:49;;;;;;;2.85;1.08;;;;;;;;;;4873147;29;20049;-74
2022/08/10 02:28:22;;;;;;;5.85;1.23;;;;;;;;;;4873023;29;20040;-72
2022/08/10 02:31:19;;;;;;;1.73;1.23;;;;;;;;;;4873794;29;20075;-74
2022/08/10 02:33:54;;;;;;;6.30;1.98;;;;;;;;;;4873235;29;20076;-74
2022/08/10 02:36:28;;;;;;;;;;;;;;;;;;4873571;29;20061;-74
2022/08/10 02:39:03;;;;;;;6.53;1.52;;;;;;;;;;4873108;29;19924;-73
2022/08/10 02:42:01;;;;;;;4.80;1.60;;;;;;;;;;4873227;29;20069;-73
2022/08/10 02:45:05;;;;;;;4.65;1.60;;;;;;;;;;4873022;29;20052;-74
2022/08/10 02:47:59;;;;;;;6.05;1.42;;;;;;;;;;4873410;29;20049;-74
2022/08/10 02:50:35;;;;;;;6.30;1.40;;;;;;;;;;4873175;29;20064;-74
2022/08/10 02:53:10;;;;;;;9.52;1.40;;;;;;;;;;4873229;29;20053;-74
2022/08/10 02:56:11;;;;;;;12.57;1.15;;;;;;;;;;4873727;29;20053;-74
2022/08/10 02:58:44;;;;;;;9.63;1.50;;;;;;;;;;4872923;29;20569;-75
2022/08/10 03:01:20;;;;;;;4.80;1.20;;;;;;;;;;4873173;29;20045;-75
2022/08/10 03:03:58;;;;;;;4.57;1.10;;;;;;;;;;4872656;29;20049;-74
2022/08/10 03:06:34;;;;;;;4.07;1.38;;;;;;;;;;4873027;29;20049;-74
2022/08/10 03:09:08;;;;;;;8.93;1.50;;;;;;;;;;4872456;29;20060;-74
2022/08/10 03:11:40;;;;;;;1.63;0.82;;;;;;;;;;4872680;29;20045;-74
2022/08/10 03:14:33;;;;;;;3.53;1.15;;;;;;;;;;4872679;29;20053;-73
2022/08/10 03:17:04;;;;;;;1.48;1.20;;;;;;;;;;4872747;29;20052;-73
2022/08/10 03:19:36;;;;;;;1.73;0.50;;;;;;;;;;4872912;29;20045;-74
2022/08/10 03:22:27;;;;;;;9.50;0.75;;;;;;;;;;4872803;29;20060;-73
2022/08/10 03:24:58;;;;;;;3.47;1.10;;;;;;;;;;4872890;29;20524;-74
2022/08/10 03:27:29;;;;;;;4.63;1.45;;;;;;;;;;4876539;29;20064;-74
2022/08/10 03:30:00;;;;;;;1.83;1.15;;;;;;;;;;4876526;29;20413;-74
2022/08/10 03:32:52;;;;;;;3.15;1.40;;;;;;;;;;4876249;29;20520;-74
2022/08/10 03:35:23;;;;;;;2.63;1.17;;;;;;;;;;4876090;29;20064;-74
2022/08/10 03:37:53;;;;;;;2.78;0.77;;;;;;;;;;4876624;29;20385;-74
2022/08/10 03:40:30;;;;;;;4.53;0.90;;;;;;;;;;4875615;29;20052;-74
2022/08/10 03:43:20;;;;;;;3.33;1.10;;;;;;;;;;4876328;29;20049;-75
2022/08/10 03:45:53;;;;;;;1.80;0.80;;;;;;;;;;4875715;29;20053;-75
2022/08/10 03:48:27;;;;;;;2.53;0.88;;;;;;;;;;4876376;29;20057;-74
2022/08/10 03:51:19;;;;;;;4.57;0.80;;;;;;;;;;4875836;29;20488;-74
2022/08/10 03:53:49;;;;;;;3.90;0.90;;;;;;;;;;4876019;29;20044;-74
2022/08/10 03:56:36;;;;;;;7.28;0.80;;;;;;;;;;4876089;29;20049;-75
2022/08/10 03:59:10;;;;;;;3.97;1.13;;;;;;;;;;4875968;29;20053;-75
2022/08/10 04:01:44;;;;;;;2.78;0.70;;;;;;;;;;4875960;29;20052;-74
2022/08/10 04:04:34;;;;;;;2.13;0.40;;;;;;;;;;4875523;29;20060;-74
2022/08/10 04:07:04;;;;;;;1.63;0.50;;;;;;;;;;4875611;29;20041;-74
2022/08/10 04:09:38;;;;;;;4.70;0.70;;;;;;;;;;4875875;29;20053;-74
2022/08/10 04:12:23;;;;;;;4.10;0.70;;;;;;;;;;4875743;29;20529;-74
2022/08/10 04:14:53;;;;;;;4.70;0.60;;;;;;;;;;4875671;29;20053;-74
2022/08/10 04:17:25;;;;;;;1.85;0.95;;;;;;;;;;4875707;29;20060;-74
2022/08/10 04:20:28;;;;;;;2.35;0.70;;;;;;;;;;4875489;29;20057;-74
2022/08/10 04:23:11;;;;;;;6.18;0.90;;;;;;;;;;4875551;29;20167;-74
2022/08/10 04:25:41;;;;;;;3.13;0.57;;;;;;;;;;4873965;29;20057;-73
2022/08/10 04:28:12;;;;;;;3.30;0.70;;;;;;;;;;4875122;29;20053;-74
2022/08/10 04:30:43;;;;;;;3.55;0.50;;;;;;;;;;4875510;29;20500;-75
2022/08/10 04:33:17;;;;;;;2.88;0.55;;;;;;;;;;4874121;29;20072;-74
2022/08/10 04:35:48;;;;;;;1.55;0.55;;;;;;;;;;4874708;29;20524;-74
2022/08/10 04:38:20;;;;;;;3.05;0.55;;;;;;;;;;4874917;29;20053;-74
2022/08/10 04:40:51;;;;;;;2.22;0.90;;;;;;;;;;4874840;29;20045;-74
2022/08/10 04:43:21;;;;;;;4.32;0.70;;;;;;;;;;4875197;29;20416;-74
2022/08/10 04:45:51;;;;;;;8.40;0.80;;;;;;;;;;4874955;29;20045;-74
2022/08/10 04:48:24;;;;;;;1.27;0.30;;;;;;;;;;4874589;29;20501;-74
2022/08/10 04:51:15;;;;;;;2.35;0.40;;;;;;;;;;4873265;29;20056;-74
2022/08/10 04:53:49;;;;;;;6.00;0.70;;;;;;;;;;4874674;29;20056;-73
2022/08/10 04:56:38;;;;;;;6.47;0.60;;;;;;;;;;4873915;29;20049;-73
2022/08/10 04:59:10;;;;;;;3.10;0.50;;;;;;;;;;4874825;29;20490;-74
2022/08/10 05:01:41;;;;;;;2.17;0.30;;;;;;;;;;4873098;29;20067;-73
2022/08/10 05:04:31;;;;;;;1.55;0.40;;;;;;;;;;4874826;29;20048;-74
2022/08/10 05:07:14;;;;;;;2.72;0.30;;;;;;;;;;4874647;29;20317;-73
2022/08/10 05:09:47;;;;;;;6.55;0.40;;;;;;;;;;4874849;29;20064;-73
2022/08/10 05:12:37;;;;;;;2.90;0.40;;;;;;;;;;4874855;29;20053;-73
2022/08/10 05:15:11;;;;;;;2.25;0.20;;;;;;;;;;4873154;29;20053;-73
2022/08/10 05:17:42;;;;;;;0.22;0.20;;;;;;;;;;4874858;29;20060;-73
2022/08/10 05:20:32;;;;;;;1.05;0.38;;;;;;;;;;4874528;29;20052;-73
2022/08/10 05:23:02;;;;;;;4.30;0.35;;;;;;;;;;4874191;29;20056;-75
2022/08/10 05:25:32;;;;;;;2.65;0.25;;;;;;;;;;4874144;29;20057;-74
2022/08/10 05:28:06;;;;;;;2.85;0.30;;;;;;;;;;4872921;29;20402;-73
2022/08/10 05:30:36;;;;;;;7.10;0.52;;;;;;;;;;4874265;29;20057;-73
2022/08/10 05:33:05;;;;;;;;;;;;;;;;;;4874713;29;20061;-74
2022/08/10 05:35:37;;;;;;;0.55;0.22;;;;;;;;;;4873746;29;20411;-73
2022/08/10 05:38:27;;;;;;;2.55;0.47;;;;;;;;;;4873029;29;20064;-73
2022/08/10 05:40:57;;;;;;;0.30;0.30;;;;;;;;;;4873763;29;20052;-73
2022/08/10 05:43:28;;;;;;;0.77;0.30;;;;;;;;;;4874344;29;20053;-74
2022/08/10 05:45:58;;;;;;;5.15;0.50;;;;;;;;;;4873711;29;20063;-73
2022/08/10 05:48:48;;;;;;;3.38;0.50;;;;;;;;;;4872270;29;20155;-72
2022/08/10 05:51:26;;;;;;;3.13;0.40;;;;;;;;;;4873791;29;20061;-73
2022/08/10 05:53:58;;;;;;;1.75;0.35;;;;;;;;;;4874254;29;20055;-73
2022/08/10 05:56:38;;;;;;;3.67;0.50;;;;;;;;;;4872984;29;20053;-74
2022/08/10 05:59:32;;;;;;;2.20;0.38;;;;;;;;;;4872106;29;20057;-72
2022/08/10 06:02:32;;;;;;;1.25;0.20;;;;;;;;;;4873925;29;20412;-75
2022/08/10 06:05:09;;;;;;;0.30;0.30;;;;;;;;;;4873121;29;20049;-73
2022/08/10 06:08:15;;;;;;;1.33;0.28;;;;;;;;;;4874221;29;20060;-74
2022/08/10 06:10:47;;;;;;;3.28;0.32;;;;;;;;;;4873639;29;20421;-74
2022/08/10 06:16:44;;;;;;;0.40;0.20;;;;;;;;;;4873480;29;20409;-74
2022/08/10 06:19:16;;;;;;;2.45;0.30;;;;;;;;;;4872141;29;20056;-75
2022/08/10 06:21:48;;;;;;;1.13;0.30;;;;;;;;;;4873447;29;20520;-74
2022/08/10 06:24:30;;;;;;;1.20;0.20;;;;;;;;;;4873215;29;20906;-73
2022/08/10 06:27:00;;;;;;;1.88;0.38;;;;;;;;;;4873369;29;20041;-74
2022/08/10 06:29:32;;;;;;;2.38;0.30;;;;;;;;;;4873859;29;20053;-74
2022/08/10 06:32:04;;;;;;;2.28;0.25;;;;;;;;;;4873528;29;20056;-74
2022/08/10 06:34:49;;;;;;;0.95;0.30;;;;;;;;;;4873433;29;20052;-74
2022/08/10 06:37:24;;;;;;;0.95;0.20;;;;;;;;;;4873059;29;20053;-74
2022/08/10 06:39:55;;;;;;;1.25;0.15;;;;;;;;;;4873231;29;20052;-74
2022/08/10 06:42:51;;;;;;;1.23;0.30;;;;;;;;;;4872831;29;20053;-74
2022/08/10 06:45:27;;;;;;;1.17;0.25;;;;;;;;;;4871208;29;20533;-74
2022/08/10 06:48:31;;;;;;;3.30;0.50;;;;;;;;;;4872643;29;20378;-74
2022/08/10 06:51:16;;;;;;;0.20;0.20;;;;;;;;;;4871756;29;20049;-74
2022/08/10 06:53:50;;;;;;;2.08;0.30;;;;;;;;;;4872264;29;20056;-73
2022/08/10 06:56:23;;;;;;;;;;;;;;;;;;4872325;29;20528;-72
2022/08/10 06:59:18;;;;;;;0.52;0.30;;;;;;;;;;4872184;29;20303;-73
2022/08/10 07:01:59;;;;;;;1.20;0.30;;;;;;;;;;4875546;29;20064;-73
2022/08/10 07:04:51;;;;;;;6.60;0.43;;;;;;;;;;4874364;29;20048;-72
2022/08/10 07:07:26;;;;;;;3.13;0.32;;;;;;;;;;4875327;29;20049;-73
2022/08/10 07:09:59;;;;;;;0.80;0.28;;;;;;;;;;4875416;29;20056;-73
2022/08/10 07:12:31;;;;;;;4.75;0.38;;;;;;;;;;4875188;29;20053;-73
2022/08/10 07:15:02;;;;;;;0.75;0.30;;;;;;;;;;4875391;29;20053;-73
2022/08/10 07:17:32;;;;;;;0.43;0.22;;;;;;;;;;4875256;29;20049;-73
2022/08/10 07:20:09;;;;;;;2.05;0.70;;;;;;;;;;4875387;29;20045;-73
2022/08/10 07:22:40;;;;;;;0.63;0.32;;;;;;;;;;4874559;29;20210;-74
2022/08/10 07:25:32;;;;;;;0.63;0.30;;;;;;;;;;4875081;29;20052;-73
2022/08/10 07:28:02;;;;;;;0.82;0.32;;;;;;;;;;4875429;29;20497;-74
2022/08/10 07:30:40;;;;;;;0.52;0.40;;;;;;;;;;4875499;29;20064;-73
2022/08/10 07:33:16;;;;;;;1.42;0.50;;;;;;;;;;4875271;29;20052;-73
2022/08/10 07:35:48;;;;;;;0.40;0.40;;;;;;;;;;4874971;29;20045;-73
2022/08/10 07:38:25;;;;;;;2.45;0.40;;;;;;;;;;4874876;29;20060;-73
2022/08/10 07:41:01;;;;;;;2.55;0.70;;;;;;;;;;4798658;29;2255169;-73
2022/08/10 07:43:34;;;;;;;;;;;;;;;;;;4876712;29;20351;-73
2022/08/10 07:46:08;;;;;;;3.97;0.55;;;;;;;;;;4876781;29;19928;-73
2022/08/10 07:48:50;;;;;;;2.70;0.50;;;;;;;;;;4875803;29;20548;-73
2022/08/10 07:51:22;;;;;;;0.40;0.40;;;;;;;;;;4875634;29;20049;-73
2022/08/10 07:53:54;;;;;;;0.20;0.20;;;;;;;;;;4875819;29;20049;-73
2022/08/10 07:56:27;;;;;;;1.98;0.30;;;;;;;;;;4875911;29;20496;-74
2022/08/10 07:59:21;;;;;;;0.93;0.30;;;;;;;;;;4875349;29;20060;-74
2022/08/10 08:01:54;;;;;;;0.00;0.00;;;;;;;;;;4875202;29;20057;-73
2022/08/10 08:04:25;;;;;;;3.15;0.28;;;;;;;;;;4875873;29;20049;-76
2022/08/10 08:06:58;;;;;;;4.25;0.50;;;;;;;;;;4875707;29;20060;-73
2022/08/10 08:09:30;;;;;;;1.48;0.20;;;;;;;;;;4875549;29;20053;-74
2022/08/10 08:12:02;;;;;;;0.20;0.13;;;;;;;;;;4874886;29;20162;-73
2022/08/10 08:14:34;;;;;;;1.42;0.15;;;;;;;;;;4875445;29;20056;-74
2022/08/10 08:17:05;;;;;;;0.30;0.10;;;;;;;;;;4875683;29;20052;-75
2022/08/10 08:19:37;;;;;;;1.05;0.30;;;;;;;;;;4875273;29;20099;-76
2022/08/10 08:22:24;;;;;;;0.22;0.08;;;;;;;;;;4875756;29;20057;-74
2022/08/10 08:25:15;;;;;;;0.57;0.10;;;;;;;;;;4876056;29;20053;-75
2022/08/10 08:27:51;;;;;;;0.08;0.08;;;;;;;;;;4875909;29;20398;-74
2022/08/10 08:30:23;;;;;;;0.45;0.10;;;;;;;;;;4875503;29;20056;-74
2022/08/10 08:32:57;;;;;;;0.47;0.10;;;;;;;;;;4875128;29;20049;-73
2022/08/10 08:35:29;;;;;;;5.45;0.75;;;;;;;;;;4874763;29;20389;-75
2022/08/10 08:38:00;;;;;;;1.10;0.10;;;;;;;;;;4874675;29;20045;-74
2022/08/10 08:41:16;;;;;;;3.78;0.30;;;;;;;;;;4874762;29;20057;-74
2022/08/10 08:44:21;;;;;;;2.40;0.35;;;;;;;;;;4875104;29;20049;-74
2022/08/10 08:47:15;;;;;;;0.45;0.10;;;;;;;;;;4874973;29;20049;-74
2022/08/10 08:50:14;;;;;;;0.50;0.20;;;;;;;;;;4874816;29;20060;-73
2022/08/10 08:52:55;;;;;;;0.17;0.10;;;;;;;;;;4875053;29;20041;-74
2022/08/10 08:55:46;;;;;;;0.15;0.08;;;;;;;;;;4874761;29;20481;-74
2022/08/10 08:59:11;;;;;;;1.65;0.30;;;;;;;;;;4873302;29;20057;-74
2022/08/10 09:01:52;;;;;;;2.17;0.15;;;;;;;;;;4874037;29;20064;-74
2022/08/10 09:04:28;;;;;;;1.55;0.20;;;;;;;;;;4874645;29;20489;-74
2022/08/10 09:07:17;;;;;;;3.65;0.20;;;;;;;;;;4874865;29;20896;-74
2022/08/10 09:10:39;;;;;;;1.70;0.15;;;;;;;;;;4873988;29;20365;-74
2022/08/10 09:13:25;;;;;;;1.77;0.20;;;;;;;;;;4874394;29;20072;-75
2022/08/10 09:16:20;;;;;;;3.90;0.50;;;;;;;;;;4874880;29;20049;-73
2022/08/10 09:19:21;;;;;;;4.65;0.50;;;;;;;;;;4874447;29;20525;-74
2022/08/10 09:22:16;;;;;;;2.88;0.20;;;;;;;;;;4874272;29;20074;-74
2022/08/10 09:25:20;;;;;;;3.63;0.40;;;;;;;;;;4874076;29;20041;-74
2022/08/10 09:28:02;;;;;;;1.35;0.25;;;;;;;;;;4872480;29;20061;-74
2022/08/10 09:30:58;;;;;;;3.25;0.20;;;;;;;;;;4874136;29;20535;-73
2022/08/10 09:34:19;;;;;;;1.75;0.30;;;;;;;;;;4873381;29;20052;-74
2022/08/10 09:38:00;;;;;;;2.75;0.22;;;;;;;;;;4873995;29;20497;-73
2022/08/10 09:41:01;;;;;;;1.77;0.20;;;;;;;;;;4858724;29;20057;-75
2022/08/10 09:44:08;;;;;;;7.68;0.40;;;;;;;;;;4873823;29;20048;-76
2022/08/10 09:46:56;;;;;;;2.58;0.38;;;;;;;;;;4873952;29;20053;-75
2022/08/10 09:49:54;;;;;;;1.25;0.20;;;;;;;;;;4873226;29;20166;-75
2022/08/10 09:52:50;;;;;;;0.38;0.28;;;;;;;;;;4864146;29;20068;-74
2022/08/10 09:55:47;;;;;;;3.22;0.30;;;;;;;;;;4873469;29;20049;-75
2022/08/10 09:59:07;;;;;;;3.40;0.50;;;;;;;;;;4873788;29;20043;-75
2022/08/10 10:02:21;;;;;;;7.97;0.60;;;;;;;;;;4873377;29;20540;-74
2022/08/10 10:05:28;;;;;;;2.13;0.32;;;;;;;;;;4873262;29;20064;-74
2022/08/10 10:08:03;;;;;;;;;;;;;;;;;;4874148;29;20405;-75
2022/08/10 10:10:55;;;;;;;7.53;0.80;;;;;;;;;;4873275;29;19946;-75
2022/08/10 10:13:34;;;;;;;3.97;0.30;;;;;;;;;;4873070;29;20049;-75
2022/08/10 10:17:02;;;;;;;3.47;0.45;;;;;;;;;;4873002;29;20049;-73
2022/08/10 10:19:46;;;;;;;1.25;0.25;;;;;;;;;;4872788;29;20072;-74
2022/08/10 10:22:42;;;;;;;6.55;1.10;;;;;;;;;;4872685;29;20409;-75
2022/08/10 10:25:36;;;;;;;4.15;0.80;;;;;;;;;;4873025;29;20049;-75
2022/08/10 10:28:42;;;;;;;4.47;0.63;;;;;;;;;;4873071;29;20046;-73
2022/08/10 10:31:49;;;;;;;6.68;1.08;;;;;;;;;;4872533;29;20045;-73
2022/08/10 10:34:47;;;;;;;7.80;1.02;;;;;;;;;;4872571;29;20517;-73
2022/08/10 10:37:22;;;;;;;9.02;1.10;;;;;;;;;;4873030;29;20045;-75
2022/08/10 10:40:14;;;;;;;9.35;0.75;;;;;;;;;;4873683;29;20505;-73
2022/08/10 10:42:59;;;;;;;10.20;1.05;;;;;;;;;;4873340;29;20068;-73
2022/08/10 10:45:38;;;;;;;8.23;1.95;;;;;;;;;;4872674;29;20532;-73
2022/08/10 10:48:24;;;;;;;22.33;4.68;;;;;;;;;;4873245;29;20060;-73
2022/08/10 10:51:23;;;;;;;15.43;7.18;;;;;;;;;;4872765;29;20057;-73
2022/08/10 10:54:09;;;;;;;11.20;4.03;;;;;;;;;;4857543;29;20069;-77
2022/08/10 10:57:02;;;;;;;8.52;2.33;;;;;;;;;;4872892;29;20053;-74
2022/08/10 11:00:01;;;;;;;6.28;1.80;;;;;;;;;;4872384;29;20520;-73
2022/08/10 11:02:48;;;;;;;5.57;0.93;;;;;;;;;;4873099;29;20075;-74
2022/08/10 11:05:39;;;;;;;8.00;0.93;;;;;;;;;;4872510;29;20049;-73
2022/08/10 11:08:38;;;;;;;6.60;0.63;;;;;;;;;;4873436;29;20048;-74
2022/08/10 11:11:15;;;;;;;3.22;0.68;;;;;;;;;;4872393;29;20203;-74
2022/08/10 11:14:26;;;;;;;4.63;0.90;;;;;;;;;;4873027;29;20053;-74
2022/08/10 11:17:11;;;;;;;3.65;1.23;;;;;;;;;;4871228;29;20053;-74
2022/08/10 11:19:59;;;;;;;4.00;0.90;;;;;;;;;;4872581;29;20081;-74
2022/08/10 11:22:56;;;;;;;4.93;0.90;;;;;;;;;;4872585;29;20057;-74
2022/08/10 11:25:37;;;;;;;5.45;0.95;;;;;;;;;;4871331;29;20524;-75
2022/08/10 11:28:19;;;;;;;6.78;0.90;;;;;;;;;;4872262;29;20413;-74
2022/08/10 11:30:55;;;;;;;10.30;0.98;;;;;;;;;;4871995;29;20053;-74
2022/08/10 11:33:50;;;;;;;3.42;0.90;;;;;;;;;;4872638;29;20042;-73
2022/08/10 11:36:48;;;;;;;3.55;0.68;;;;;;;;;;4872196;29;20056;-73
2022/08/10 11:39:55;;;;;;;7.68;1.00;;;;;;;;;;4872154;29;20052;-73
2022/08/10 11:42:46;;;;;;;7.25;0.80;;;;;;;;;;4873083;29;20072;-73
2022/08/10 11:45:30;;;;;;;2.47;0.70;;;;;;;;;;4872709;29;20052;-73
2022/08/10 11:48:11;;;;;;;4.70;0.90;;;;;;;;;;4875706;29;20080;-72
2022/08/10 11:51:08;;;;;;;7.70;0.73;;;;;;;;;;4876197;29;20528;-73
2022/08/10 11:54:10;;;;;;;3.25;0.68;;;;;;;;;;4876172;29;20053;-77
2022/08/10 11:56:52;;;;;;;4.38;0.88;;;;;;;;;;4876149;29;20053;-73
2022/08/10 12:02:34;;;;;;;4.95;0.65;;;;;;;;;;4875530;29;20063;-74
2022/08/10 12:05:10;;;;;;;5.55;0.90;;;;;;;;;;4876295;29;20516;-74
2022/08/10 12:07:45;;;;;;;3.35;0.70;;;;;;;;;;4875654;29;20073;-74
2022/08/10 12:10:35;;;;;;;3.42;0.70;;;;;;;;;;4875725;29;20045;-75
2022/08/10 12:13:21;;;;;;;4.85;1.27;;;;;;;;;;4876031;29;20061;-75
2022/08/10 12:16:09;;;;;;;5.97;0.73;;;;;;;;;;4875920;29;20509;-72
2022/08/10 12:18:51;;;;;;;7.13;1.20;;;;;;;;;;4874321;29;20084;-75
2022/08/10 12:21:51;;;;;;;2.40;0.80;;;;;;;;;;4875470;29;20409;-73
2022/08/10 12:24:25;;;;;;;8.75;0.85;;;;;;;;;;4862560;29;20071;-74
2022/08/10 12:27:15;;;;;;;7.68;1.42;;;;;;;;;;4874971;29;20513;-76
2022/08/10 12:30:02;;;;;;;8.23;1.00;;;;;;;;;;4875405;29;20082;-76
2022/08/10 12:32:32;;;;;;;7.32;1.10;;;;;;;;;;4874959;29;20057;-77
2022/08/10 12:35:40;;;;;;;;;;;;;;;;;;4875489;29;20064;-75
2022/08/10 12:39:00;;;;;;;8.25;1.02;;;;;;;;;;4835334;29;20320;-73
2022/08/10 12:41:36;;;;;;;12.20;1.30;;;;;;;;;;4835466;29;20068;-75
2022/08/10 12:44:19;;;;;;;9.27;1.27;;;;;;;;;;4873372;29;20061;-73
2022/08/10 12:47:06;;;;;;;6.32;1.20;;;;;;;;;;4874902;29;20060;-76
2022/08/10 12:49:49;;;;;;;8.75;1.00;;;;;;;;;;4875244;29;20108;-74
2022/08/10 12:52:49;;;;;;;5.80;0.95;;;;;;;;;;4875014;29;20386;-73
2022/08/10 12:55:21;;;;;;;6.45;0.88;;;;;;;;;;4875534;29;20040;-74
2022/08/10 12:57:55;;;;;;;14.48;1.15;;;;;;;;;;4873322;29;20053;-75
2022/08/10 13:00:33;;;;;;;10.73;1.15;;;;;;;;;;4874679;29;20394;-73
2022/08/10 13:03:24;;;;;;;6.38;1.23;;;;;;;;;;4873667;29;20064;-75
2022/08/10 13:06:15;;;;;;;10.48;1.52;;;;;;;;;;4873426;29;20075;-73
2022/08/10 13:11:58;;;;;;;11.52;1.10;;;;;;;;;;4874419;29;20056;-74
2022/08/10 13:14:57;;;;;;;11.98;1.00;;;;;;;;;;4874253;29;20052;-76
2022/08/10 13:17:33;;;;;;;6.35;1.05;;;;;;;;;;4874708;29;20055;-75
2022/08/10 13:20:35;;;;;;;8.15;0.95;;;;;;;;;;4874759;29;20071;-74
2022/08/10 13:23:13;;;;;;;6.55;0.73;;;;;;;;;;4873201;29;20068;-75
2022/08/10 13:25:47;;;;;;;5.72;0.80;;;;;;;;;;4873734;29;20060;-74
2022/08/10 13:28:23;;;;;;;5.38;0.55;;;;;;;;;;4874357;29;20068;-73
2022/08/10 13:31:10;;;;;;;11.25;1.08;;;;;;;;;;4877515;29;20508;-72
2022/08/10 13:33:54;;;;;;;6.85;0.80;;;;;;;;;;4875571;29;20045;-74
2022/08/10 13:36:48;;;;;;;2.95;0.50;;;;;;;;;;4873575;29;20516;-74
2022/08/10 13:39:23;;;;;;;3.70;0.70;;;;;;;;;;4872399;29;20052;-74
2022/08/10 13:41:55;;;;;;;3.30;0.52;;;;;;;;;;4874091;29;20061;-73
2022/08/10 13:44:37;;;;;;;4.28;0.60;;;;;;;;;;4874329;29;20048;-76
2022/08/10 13:47:11;;;;;;;;;;;;;;;;;;4874199;29;20074;-73
2022/08/10 13:49:50;;;;;;;2.65;0.52;;;;;;;;;;4873697;29;19924;-74
2022/08/10 13:52:25;;;;;;;3.25;0.50;;;;;;;;;;4873775;29;20497;-74
2022/08/10 13:54:59;;;;;;;3.70;0.60;;;;;;;;;;4872727;29;20057;-73
2022/08/10 13:57:35;;;;;;;1.30;0.35;;;;;;;;;;4873929;29;20516;-73
2022/08/10 14:00:15;;;;;;;3.05;0.43;;;;;;;;;;4872268;29;20049;-75
2022/08/10 14:03:10;;;;;;;3.80;0.60;;;;;;;;;;4873642;29;20049;-74
2022/08/10 14:05:49;;;;;;;2.92;0.30;;;;;;;;;;4873212;29;20048;-74
2022/08/10 14:08:24;;;;;;;6.47;0.90;;;;;;;;;;4861765;29;20052;-75
2022/08/10 14:11:03;;;;;;;3.90;0.52;;;;;;;;;;4854519;29;20052;-75
2022/08/10 14:13:50;;;;;;;5.00;0.60;;;;;;;;;;4853994;29;20069;-76
2022/08/10 14:16:21;;;;;;;5.07;0.50;;;;;;;;;;4854560;29;20076;-75
2022/08/10 14:18:59;;;;;;;6.45;0.57;;;;;;;;;;4853970;29;20053;-75
2022/08/10 14:21:29;;;;;;;5.10;0.52;;;;;;;;;;4854038;29;20417;-74
2022/08/10 14:24:00;;;;;;;4.07;0.38;;;;;;;;;;4854425;29;20053;-73
2022/08/10 14:26:31;;;;;;;4.20;0.70;;;;;;;;;;4855005;29;20072;-74
2022/08/10 14:29:10;;;;;;;18.40;1.73;;;;;;;;;;4854503;29;20506;-77
2022/08/10 14:31:48;;;;;;;6.68;0.70;;;;;;;;;;4853616;29;20675;-73
2022/08/10 14:34:35;;;;;;;6.47;1.10;;;;;;;;;;4854235;29;20046;-75
2022/08/10 14:37:47;;;;;;;14.55;1.30;;;;;;;;;;4854519;29;20049;-74
2022/08/10 14:40:27;;;;;;;8.48;1.00;;;;;;;;;;4853803;29;20080;-75
2022/08/10 14:43:05;;;;;;;4.88;0.80;;;;;;;;;;4854161;29;20433;-72
2022/08/10 14:45:38;;;;;;;9.25;1.00;;;;;;;;;;4854027;29;20060;-73
2022/08/10 14:48:16;;;;;;;8.82;1.58;;;;;;;;;;4854600;29;20069;-74
2022/08/10 14:50:57;;;;;;;6.40;1.20;;;;;;;;;;4854299;29;20057;-74
2022/08/10 14:53:33;;;;;;;7.50;0.90;;;;;;;;;;4853803;29;20061;-70
2022/08/10 14:56:10;;;;;;;10.88;1.33;;;;;;;;;;4854118;29;20065;-74
2022/08/10 14:58:53;;;;;;;5.53;0.88;;;;;;;;;;4852501;29;20593;-76
2022/08/10 15:01:37;;;;;;;8.25;1.10;;;;;;;;;;4867474;29;20088;-73
2022/08/10 15:04:28;;;;;;;7.03;1.20;;;;;;;;;;4853034;29;20101;-75
2022/08/10 15:07:20;;;;;;;5.63;0.90;;;;;;;;;;4853878;29;20057;-77
2022/08/10 15:09:52;;;;;;;5.18;0.93;;;;;;;;;;4853686;29;20049;-74
2022/08/10 15:12:34;;;;;;;6.75;1.10;;;;;;;;;;4853674;29;20528;-74
2022/08/10 15:15:07;;;;;;;6.35;0.93;;;;;;;;;;4854020;29;20050;-73
2022/08/10 15:17:43;;;;;;;4.30;0.80;;;;;;;;;;4853092;29;20053;-76
2022/08/10 15:20:20;;;;;;;;;;;;;;;;;;4855175;29;20045;-74
2022/08/10 15:22:52;;;;;;;6.57;0.75;;;;;;;;;;4857373;29;19928;-74
2022/08/10 15:25:24;;;;;;;4.53;0.55;;;;;;;;;;4857550;29;20049;-73
2022/08/10 15:28:09;;;;;;;5.38;0.82;;;;;;;;;;4857035;29;20073;-73
2022/08/10 15:30:50;;;;;;;8.73;0.63;;;;;;;;;;4857525;29;20498;-74
2022/08/10 15:39:52;;;;;;;3.95;0.90;;;;;;;;;;4859702;29;20052;-75
2022/08/10 15:42:54;;;;;;;6.28;0.77;;;;;;;;;;4855415;29;20421;-76
2022/08/10 15:45:26;;;;;;;3.92;0.57;;;;;;;;;;4857532;29;20398;-73
2022/08/10 15:48:03;;;;;;;5.78;0.82;;;;;;;;;;4857530;29;20053;-71
2022/08/10 15:50:40;;;;;;;4.18;0.30;;;;;;;;;;4857427;29;20474;-73
2022/08/10 15:53:13;;;;;;;5.32;0.50;;;;;;;;;;4862245;29;20426;-74
2022/08/10 15:55:56;;;;;;;1.25;0.40;;;;;;;;;;4864729;29;20076;-74
2022/08/10 15:58:35;;;;;;;4.10;0.82;;;;;;;;;;4864586;29;20045;-74
2022/08/10 16:01:12;;;;;;;7.10;0.57;;;;;;;;;;4862123;29;20049;-73
2022/08/10 16:04:06;;;;;;;;;;;;;;;;;;4856661;29;20049;-73
2022/08/10 16:07:08;;;;;;;;;;;;;;;;;;4857612;29;19935;-74
2022/08/10 16:09:50;;;;;;;5.07;0.57;;;;;;;;;;4845340;29;20308;-74
2022/08/10 16:12:52;;;;;;;4.32;0.55;;;;;;;;;;4856707;29;20054;-73
2022/08/10 16:15:30;;;;;;;2.85;0.75;;;;;;;;;;4857319;29;20049;-77
2022/08/10 16:18:07;;;;;;;2.67;0.50;;;;;;;;;;4856925;29;20647;-72
2022/08/10 16:20:59;;;;;;;3.92;0.70;;;;;;;;;;4856533;29;20085;-75
2022/08/10 16:23:33;;;;;;;3.20;0.40;;;;;;;;;;4856160;29;20052;-75
2022/08/10 16:26:09;;;;;;;5.25;0.60;;;;;;;;;;4856765;29;20050;-76
2022/08/10 16:28:58;;;;;;;1.95;0.35;;;;;;;;;;4856841;29;20060;-74
2022/08/10 16:31:33;;;;;;;4.95;0.82;;;;;;;;;;4856305;29;20053;-73